Time;durP1;ratioP1;P1;durP2;ratioP2;P2;SDS_P1;SDS_P2;PMS_P1;PMS_P2;Temp;Humidity;BMP_temperature;BMP_pressure;BME280_temperature;BME280_humidity;BME280_pressure;Samples;Min_cycle;Max_cycle;Signal;HPM_P1;HPM_P2
2023/06/02 00:00:50;;;;;;;3.30;2.30;;;21.00;75.10;;;;;;5048152;28;20457;-49
2023/06/02 00:03:18;;;;;;;2.10;1.90;;;21.00;75.10;;;;;;5037847;28;20200;-49
2023/06/02 00:05:46;;;;;;;2.17;1.98;;;21.00;75.00;;;;;;5043559;28;20290;-51
2023/06/02 00:08:17;;;;;;;2.72;2.10;;;21.00;75.10;;;;;;5049202;28;20199;-49
2023/06/02 00:10:44;;;;;;;2.03;1.92;;;21.00;75.00;;;;;;5048803;28;20199;-49
2023/06/02 00:13:11;;;;;;;2.10;1.90;;;21.00;75.10;;;;;;5048441;28;20227;-51
2023/06/02 00:15:40;;;;;;;3.30;1.80;;;21.00;75.00;;;;;;5035852;28;20196;-49
2023/06/02 00:18:08;;;;;;;1.85;1.73;;;21.00;75.00;;;;;;5043354;28;20210;-50
2023/06/02 00:20:35;;;;;;;2.72;2.15;;;21.00;75.10;;;;;;5040536;28;20231;-48
2023/06/02 00:23:03;;;;;;;1.95;1.75;;;21.00;75.00;;;;;;5043779;28;20231;-48
2023/06/02 00:25:30;;;;;;;2.78;2.40;;;21.00;75.00;;;;;;5044260;28;20200;-49
2023/06/02 00:27:57;;;;;;;3.50;1.95;;;21.00;75.00;;;;;;5043119;28;20203;-48
2023/06/02 00:30:24;;;;;;;2.38;2.17;;;21.00;75.00;;;;;;5041570;28;20280;-49
2023/06/02 00:32:50;;;;;;;2.15;1.63;;;21.00;75.00;;;;;;5038177;28;20254;-50
2023/06/02 00:35:18;;;;;;;1.80;1.70;;;21.00;75.00;;;;;;5049206;28;20195;-48
2023/06/02 00:37:46;;;;;;;2.90;1.77;;;21.00;74.90;;;;;;5049350;28;20204;-49
2023/06/02 00:40:13;;;;;;;1.98;1.77;;;21.00;74.90;;;;;;5051414;28;20226;-50
2023/06/02 00:42:40;;;;;;;2.20;1.73;;;21.00;74.90;;;;;;5043880;28;20222;-48
2023/06/02 00:45:08;;;;;;;2.10;1.80;;;21.00;75.00;;;;;;5047034;28;20198;-50
2023/06/02 00:47:35;;;;;;;2.33;2.13;;;21.00;74.90;;;;;;5050128;28;20733;-53
2023/06/02 00:50:01;;;;;;;3.08;2.10;;;21.00;75.00;;;;;;5048193;28;20225;-48
2023/06/02 00:52:31;;;;;;;2.03;1.92;;;21.00;75.00;;;;;;5046508;28;20253;-49
2023/06/02 00:54:58;;;;;;;2.10;1.90;;;21.00;74.90;;;;;;5043069;28;20308;-49
2023/06/02 00:57:28;;;;;;;2.63;2.05;;;21.00;75.00;;;;;;5045869;28;20599;-51
2023/06/02 00:59:55;;;;;;;1.65;1.50;;;21.00;75.00;;;;;;5042786;28;20227;-51
2023/06/02 01:02:22;;;;;;;1.88;1.65;;;21.00;75.00;;;;;;5042591;28;20195;-51
2023/06/02 01:04:50;;;;;;;2.00;1.90;;;21.00;74.90;;;;;;5054766;28;20200;-50
2023/06/02 01:07:23;;;;;;;2.20;2.05;;;21.00;74.90;;;;;;5039629;28;20218;-51
2023/06/02 01:09:52;;;;;;;1.92;1.70;;;21.00;74.90;;;;;;5040828;28;20207;-52
2023/06/02 01:12:20;;;;;;;2.60;2.20;;;20.90;74.80;;;;;;5035146;28;20200;-51
2023/06/02 01:14:47;;;;;;;2.28;2.08;;;21.00;74.80;;;;;;5043270;28;20199;-51
2023/06/02 01:17:14;;;;;;;2.00;1.80;;;21.00;74.90;;;;;;5048544;28;20257;-52
2023/06/02 01:19:42;;;;;;;1.95;1.75;;;21.00;74.90;;;;;;5051599;28;20269;-51
2023/06/02 01:22:13;;;;;;;2.33;1.90;;;21.00;74.90;;;;;;5052685;28;20222;-49
2023/06/02 01:24:43;;;;;;;2.70;2.17;;;21.00;74.90;;;;;;5055255;28;20280;-50
2023/06/02 01:27:12;;;;;;;1.83;1.73;;;21.00;74.90;;;;;;5053537;28;20211;-49
2023/06/02 01:29:40;;;;;;;1.80;1.70;;;21.00;74.80;;;;;;5038965;28;20203;-51
2023/06/02 01:32:14;;;;;;;1.73;1.60;;;21.00;74.90;;;;;;5054255;28;20249;-48
2023/06/02 01:34:46;;;;;;;2.13;1.92;;;21.00;74.80;;;;;;5052216;28;20206;-50
2023/06/02 01:37:15;;;;;;;2.05;1.85;;;21.00;74.80;;;;;;5046826;28;20192;-48
2023/06/02 01:39:45;;;;;;;1.90;1.70;;;20.90;74.80;;;;;;5053469;28;20687;-48
2023/06/02 01:42:13;;;;;;;1.83;1.73;;;21.00;74.80;;;;;;5049010;28;20196;-50
2023/06/02 01:44:41;;;;;;;5.50;2.13;;;21.00;74.80;;;;;;5045257;28;20249;-49
2023/06/02 01:47:08;;;;;;;1.77;1.67;;;20.90;74.70;;;;;;5050384;28;20206;-51
2023/06/02 01:49:35;;;;;;;1.70;1.60;;;20.90;74.70;;;;;;5047911;28;20679;-51
2023/06/02 01:52:02;;;;;;;2.10;2.00;;;20.90;74.70;;;;;;5051744;28;20195;-49
2023/06/02 01:54:28;;;;;;;2.15;1.95;;;21.00;74.80;;;;;;5044747;28;20257;-50
2023/06/02 01:56:56;;;;;;;2.17;1.50;;;21.00;74.80;;;;;;5048502;28;20207;-50
2023/06/02 01:59:23;;;;;;;2.65;1.95;;;20.90;74.70;;;;;;5054583;28;20206;-52
2023/06/02 02:01:50;;;;;;;1.70;1.55;;;20.90;74.60;;;;;;5042078;28;20196;-53
2023/06/02 02:04:16;;;;;;;2.05;1.85;;;20.90;74.60;;;;;;5048347;28;20200;-53
2023/06/02 02:06:46;;;;;;;1.77;1.65;;;20.90;74.60;;;;;;5052205;28;20191;-53
2023/06/02 02:09:12;;;;;;;2.45;2.25;;;20.90;75.50;;;;;;5058150;28;20203;-53
2023/06/02 02:11:39;;;;;;;1.75;1.40;;;20.90;74.60;;;;;;5049301;28;20199;-52
2023/06/02 02:14:08;;;;;;;2.63;2.22;;;20.90;74.60;;;;;;5043051;28;20249;-51
2023/06/02 02:16:36;;;;;;;1.48;1.38;;;20.90;74.60;;;;;;5050150;28;20202;-52
2023/06/02 02:19:03;;;;;;;2.55;2.22;;;20.90;74.60;;;;;;5047695;28;20207;-50
2023/06/02 02:21:30;;;;;;;2.10;2.00;;;20.90;74.60;;;;;;5044777;28;20253;-53
2023/06/02 02:23:56;;;;;;;2.30;2.00;;;20.90;74.60;;;;;;5045307;28;20240;-51
2023/06/02 02:26:23;;;;;;;1.85;1.73;;;20.90;74.60;;;;;;5048326;28;20191;-49
2023/06/02 02:28:49;;;;;;;1.88;1.77;;;20.90;74.60;;;;;;5050352;28;20690;-52
2023/06/02 02:31:17;;;;;;;2.70;2.50;;;20.90;74.60;;;;;;5051236;28;20214;-50
2023/06/02 02:33:44;;;;;;;1.58;1.48;;;20.90;74.60;;;;;;5044236;28;20191;-52
2023/06/02 02:36:11;;;;;;;2.38;1.85;;;20.90;74.60;;;;;;5044714;28;20196;-53
2023/06/02 02:38:38;;;;;;;1.70;1.60;;;20.90;74.60;;;;;;5048851;28;20221;-48
2023/06/02 02:41:05;;;;;;;1.50;1.40;;;20.90;74.60;;;;;;5049118;28;20791;-49
2023/06/02 02:43:32;;;;;;;1.80;1.70;;;20.90;74.60;;;;;;5049228;28;20698;-49
2023/06/02 02:45:58;;;;;;;1.65;1.55;;;20.90;74.70;;;;;;5048528;28;20208;-48
2023/06/02 02:48:26;;;;;;;1.70;1.60;;;20.90;74.60;;;;;;5047995;28;20529;-51
2023/06/02 02:50:53;;;;;;;1.40;1.30;;;20.90;74.60;;;;;;5050847;28;20257;-50
2023/06/02 02:53:20;;;;;;;1.98;1.88;;;20.90;74.60;;;;;;5046807;28;20199;-49
2023/06/02 02:55:47;;;;;;;1.55;1.45;;;20.90;74.60;;;;;;5043413;28;20559;-49
2023/06/02 02:58:18;;;;;;;1.67;1.58;;;20.90;74.60;;;;;;5047337;28;20242;-49
2023/06/02 03:00:46;;;;;;;2.20;2.00;;;20.90;74.60;;;;;;5043844;28;20265;-54
2023/06/02 03:03:13;;;;;;;2.25;2.05;;;20.90;74.60;;;;;;5045902;28;20202;-51
2023/06/02 03:05:41;;;;;;;1.95;1.85;;;20.90;74.60;;;;;;5045554;28;20199;-51
2023/06/02 03:08:09;;;;;;;1.90;1.80;;;20.90;74.60;;;;;;5050316;28;20198;-49
2023/06/02 03:10:36;;;;;;;1.77;1.67;;;20.90;74.60;;;;;;5043518;28;20291;-52
2023/06/02 03:13:03;;;;;;;1.63;1.52;;;20.80;74.50;;;;;;5037372;28;20208;-51
2023/06/02 03:15:30;;;;;;;1.70;1.60;;;20.80;75.30;;;;;;5043805;28;20202;-52
2023/06/02 03:17:58;;;;;;;1.70;1.60;;;20.90;74.90;;;;;;5048091;28;20562;-53
2023/06/02 03:20:25;;;;;;;2.40;2.03;;;20.90;74.60;;;;;;5048162;28;20223;-52
2023/06/02 03:22:55;;;;;;;2.08;1.88;;;20.80;74.50;;;;;;5047442;28;20192;-53
2023/06/02 03:25:22;;;;;;;2.17;1.98;;;20.80;74.40;;;;;;5043879;28;20647;-53
2023/06/02 03:27:51;;;;;;;3.13;2.10;;;20.80;74.50;;;;;;5044409;28;20207;-52
2023/06/02 03:30:17;;;;;;;2.00;1.80;;;20.80;74.50;;;;;;5043236;28;20203;-52
2023/06/02 03:32:44;;;;;;;1.67;1.58;;;20.80;74.50;;;;;;5046086;28;20191;-52
2023/06/02 03:35:11;;;;;;;1.60;1.48;;;20.80;74.50;;;;;;5044473;28;20202;-52
2023/06/02 03:37:37;;;;;;;2.10;1.90;;;20.80;74.50;;;;;;5048397;28;20195;-48
2023/06/02 03:40:07;;;;;;;2.00;1.80;;;20.80;74.50;;;;;;5046771;28;20785;-49
2023/06/02 03:42:34;;;;;;;1.90;1.70;;;20.80;74.40;;;;;;5043398;28;20242;-48
2023/06/02 03:45:01;;;;;;;1.90;1.80;;;20.80;74.50;;;;;;5040489;28;20195;-51
2023/06/02 03:47:27;;;;;;;1.65;1.55;;;20.80;74.40;;;;;;5047000;28;20358;-53
2023/06/02 03:49:54;;;;;;;1.60;1.50;;;20.80;74.50;;;;;;5052862;28;20198;-50
2023/06/02 03:52:21;;;;;;;3.25;2.20;;;20.80;74.40;;;;;;5055256;28;20199;-48
2023/06/02 03:54:49;;;;;;;1.60;1.50;;;20.80;74.50;;;;;;5049205;28;20813;-52
2023/06/02 03:57:17;;;;;;;1.60;1.50;;;20.80;74.50;;;;;;5045885;28;20290;-48
2023/06/02 03:59:44;;;;;;;1.98;1.83;;;20.80;74.50;;;;;;5041541;28;20226;-48
2023/06/02 04:02:11;;;;;;;1.60;1.50;;;20.80;74.40;;;;;;5047194;28;20200;-49
2023/06/02 04:04:37;;;;;;;1.73;1.63;;;20.80;74.40;;;;;;5040544;28;20257;-49
2023/06/02 04:07:05;;;;;;;2.25;1.98;;;20.80;74.50;;;;;;5050150;28;20242;-53
2023/06/02 04:09:32;;;;;;;2.05;1.75;;;20.80;74.50;;;;;;5045293;28;20729;-49
2023/06/02 04:11:59;;;;;;;2.78;2.15;;;20.80;74.50;;;;;;5041119;28;20663;-51
2023/06/02 04:14:28;;;;;;;2.30;1.98;;;20.80;74.50;;;;;;5044944;28;20199;-52
2023/06/02 04:16:55;;;;;;;2.05;1.85;;;20.80;74.50;;;;;;5054365;28;20190;-50
2023/06/02 04:19:22;;;;;;;1.70;1.60;;;20.80;74.50;;;;;;5040658;28;20613;-49
2023/06/02 04:21:49;;;;;;;2.33;1.60;;;20.80;74.50;;;;;;5055476;28;20652;-50
2023/06/02 04:24:15;;;;;;;1.70;1.60;;;20.80;74.50;;;;;;5046933;28;20224;-50
2023/06/02 04:26:42;;;;;;;1.70;1.60;;;20.80;74.50;;;;;;5049392;28;20261;-49
2023/06/02 04:29:08;;;;;;;2.20;2.00;;;20.80;75.30;;;;;;5048800;28;20196;-49
2023/06/02 04:31:45;;;;;;;2.00;1.60;;;20.80;74.50;;;;;;5050639;28;20203;-49
2023/06/02 04:34:12;;;;;;;2.30;1.50;;;20.80;74.50;;;;;;5044537;28;20568;-51
2023/06/02 04:36:39;;;;;;;1.80;1.65;;;20.80;74.40;;;;;;5045907;28;20217;-49
2023/06/02 04:39:07;;;;;;;1.98;1.73;;;20.80;74.50;;;;;;5041353;28;20203;-49
2023/06/02 04:41:34;;;;;;;2.05;1.42;;;20.80;74.50;;;;;;5049071;28;20359;-49
2023/06/02 04:44:01;;;;;;;4.60;1.88;;;20.70;74.40;;;;;;5044699;28;20603;-50
2023/06/02 04:46:27;;;;;;;1.63;1.52;;;20.80;74.40;;;;;;5045107;28;20624;-50
2023/06/02 04:48:56;;;;;;;1.27;1.17;;;20.70;74.30;;;;;;5045060;28;20253;-50
2023/06/02 04:51:26;;;;;;;1.80;1.42;;;20.70;74.30;;;;;;5048584;28;20253;-51
2023/06/02 04:53:53;;;;;;;1.50;1.40;;;20.80;74.50;;;;;;5045791;28;20566;-50
2023/06/02 04:56:20;;;;;;;1.45;1.35;;;20.70;74.30;;;;;;5048662;28;20188;-50
2023/06/02 04:58:47;;;;;;;1.60;1.50;;;20.70;74.30;;;;;;5042439;28;20195;-51
2023/06/02 05:01:13;;;;;;;1.60;1.50;;;20.70;74.30;;;;;;5058271;28;20234;-48
2023/06/02 05:03:41;;;;;;;1.67;1.58;;;20.70;74.30;;;;;;5050247;28;20258;-50
2023/06/02 05:06:09;;;;;;;2.25;1.90;;;20.70;74.30;;;;;;5046427;28;20248;-49
2023/06/02 05:08:36;;;;;;;1.63;1.25;;;20.70;74.30;;;;;;5047121;28;20215;-50
2023/06/02 05:11:05;;;;;;;2.13;1.80;;;20.70;75.10;;;;;;5045234;28;20230;-50
2023/06/02 05:13:32;;;;;;;1.60;1.50;;;20.80;74.40;;;;;;5046214;28;20308;-50
2023/06/02 05:15:58;;;;;;;1.70;1.60;;;20.70;74.40;;;;;;5046288;28;20286;-49
2023/06/02 05:18:25;;;;;;;1.50;1.35;;;20.70;74.30;;;;;;5051627;28;20206;-49
2023/06/02 05:20:52;;;;;;;1.73;1.52;;;20.70;74.40;;;;;;5054913;28;20644;-51
2023/06/02 05:23:20;;;;;;;1.52;1.40;;;20.70;74.40;;;;;;5053230;28;20227;-52
2023/06/02 05:25:49;;;;;;;1.63;1.52;;;20.70;74.30;;;;;;5046618;28;20207;-50
2023/06/02 05:28:16;;;;;;;1.95;1.55;;;20.70;74.30;;;;;;5043310;28;20192;-50
2023/06/02 05:30:43;;;;;;;1.58;1.48;;;20.70;74.30;;;;;;5049553;28;20204;-49
2023/06/02 05:33:09;;;;;;;1.85;1.40;;;20.70;74.30;;;;;;5050228;28;20192;-50
2023/06/02 05:35:36;;;;;;;1.70;1.60;;;20.70;74.30;;;;;;5052666;28;20203;-50
2023/06/02 05:38:03;;;;;;;1.40;1.30;;;20.70;74.30;;;;;;5048053;28;20749;-51
2023/06/02 05:40:31;;;;;;;1.65;1.55;;;20.70;74.30;;;;;;5046613;28;20272;-49
2023/06/02 05:42:57;;;;;;;1.50;1.40;;;20.70;74.30;;;;;;5049834;28;20652;-51
2023/06/02 05:45:24;;;;;;;1.60;1.50;;;20.70;74.30;;;;;;5050320;28;20199;-49
2023/06/02 05:47:51;;;;;;;1.63;1.35;;;20.70;74.30;;;;;;5048881;28;20199;-52
2023/06/02 05:50:17;;;;;;;1.92;1.35;;;20.70;74.30;;;;;;5046124;28;20244;-49
2023/06/02 05:52:44;;;;;;;1.35;1.25;;;20.70;74.30;;;;;;5049043;28;20196;-52
2023/06/02 05:55:11;;;;;;;1.45;1.35;;;20.70;74.30;;;;;;5048690;28;20202;-48
2023/06/02 05:57:39;;;;;;;1.77;1.67;;;20.70;75.10;;;;;;5052396;28;20242;-48
2023/06/02 06:00:07;;;;;;;2.08;1.60;;;20.70;74.30;;;;;;5053637;28;20194;-52
2023/06/02 06:02:34;;;;;;;1.58;1.40;;;20.70;74.30;;;;;;5046733;28;20196;-50
2023/06/02 06:05:00;;;;;;;1.50;1.40;;;20.70;74.30;;;;;;5056876;28;20199;-49
2023/06/02 06:07:27;;;;;;;1.83;1.73;;;20.60;74.20;;;;;;5043503;28;20207;-49
2023/06/02 06:09:54;;;;;;;1.90;1.80;;;20.70;74.30;;;;;;5051900;28;20192;-52
2023/06/02 06:12:20;;;;;;;1.60;1.33;;;20.70;74.30;;;;;;5046794;28;20384;-52
2023/06/02 06:14:48;;;;;;;2.00;1.50;;;20.70;74.30;;;;;;5050459;28;20199;-48
2023/06/02 06:17:15;;;;;;;1.70;1.60;;;20.70;74.30;;;;;;5041342;28;20211;-52
2023/06/02 06:19:42;;;;;;;1.42;1.33;;;20.70;74.30;;;;;;5043754;28;20200;-54
2023/06/02 06:22:08;;;;;;;1.70;1.60;;;20.70;74.20;;;;;;5041852;28;20211;-49
2023/06/02 06:24:35;;;;;;;1.30;1.20;;;20.60;74.10;;;;;;5047945;28;20642;-50
2023/06/02 06:27:02;;;;;;;2.53;1.73;;;20.70;74.30;;;;;;5046210;28;20595;-53
2023/06/02 06:29:28;;;;;;;12.73;2.42;;;20.70;74.20;;;;;;5046260;28;20590;-52
2023/06/02 06:31:56;;;;;;;4.93;2.28;;;20.70;73.40;;;;;;5046967;28;20299;-51
2023/06/02 06:34:23;;;;;;;3.85;2.70;;;20.70;72.80;;;;;;5038896;28;20203;-48
2023/06/02 06:36:51;;;;;;;10.05;3.10;;;20.60;72.40;;;;;;5041226;28;20207;-54
2023/06/02 06:39:17;;;;;;;4.47;2.28;;;20.60;71.10;;;;;;5049258;28;20212;-50
2023/06/02 06:41:44;;;;;;;6.80;2.42;;;20.50;70.20;;;;;;5048071;28;20215;-52
2023/06/02 06:44:11;;;;;;;9.68;3.58;;;20.50;69.80;;;;;;5047535;28;20389;-52
2023/06/02 06:46:38;;;;;;;8.40;2.80;;;20.50;68.10;;;;;;5049721;28;20242;-50
2023/06/02 06:49:06;;;;;;;6.35;2.47;;;20.40;67.50;;;;;;5042390;28;20249;-51
2023/06/02 06:51:33;;;;;;;6.95;2.05;;;20.40;67.20;;;;;;5040739;28;20208;-50
2023/06/02 06:53:59;;;;;;;9.65;2.90;;;20.30;64.70;;;;;;5043763;28;20191;-48
2023/06/02 06:56:26;;;;;;;5.47;2.58;;;20.30;64.00;;;;;;5049581;28;20229;-49
2023/06/02 06:58:53;;;;;;;4.70;2.35;;;20.30;63.90;;;;;;5045499;28;20196;-50
2023/06/02 07:01:20;;;;;;;3.70;2.17;;;20.30;65.00;;;;;;5045026;28;20211;-52
2023/06/02 07:03:46;;;;;;;8.18;2.42;;;20.30;65.60;;;;;;5042950;28;20287;-51
2023/06/02 07:06:14;;;;;;;6.85;3.00;;;20.30;64.80;;;;;;5048953;28;20192;-52
2023/06/02 07:08:41;;;;;;;18.65;3.20;;;20.30;63.60;;;;;;5042969;28;20204;-53
2023/06/02 07:11:08;;;;;;;8.18;3.20;;;20.20;63.70;;;;;;5043881;28;20207;-48
2023/06/02 07:13:34;;;;;;;14.23;3.13;;;20.10;61.30;;;;;;5044395;28;20203;-51
2023/06/02 07:16:01;;;;;;;6.35;2.85;;;20.10;61.50;;;;;;5040223;28;20199;-50
2023/06/02 07:18:27;;;;;;;9.25;3.45;;;20.00;60.90;;;;;;5043172;28;20203;-50
2023/06/02 07:20:54;;;;;;;5.82;3.03;;;20.00;61.30;;;;;;5044708;28;20219;-50
2023/06/02 07:23:22;;;;;;;6.03;2.80;;;20.00;61.10;;;;;;5047942;28;20258;-48
2023/06/02 07:25:49;;;;;;;6.63;2.35;;;20.00;62.10;;;;;;5042940;28;20729;-48
2023/06/02 07:28:15;;;;;;;4.30;2.42;;;20.00;62.10;;;;;;5048413;28;20617;-50
2023/06/02 07:30:48;;;;;;;7.00;2.75;;;20.00;61.40;;;;;;5046739;28;20203;-47
2023/06/02 07:33:15;;;;;;;6.10;2.80;;;20.00;61.60;;;;;;5038986;28;20721;-49
2023/06/02 07:35:42;;;;;;;4.97;2.75;;;20.00;62.20;;;;;;5050921;28;20628;-47
2023/06/02 07:38:08;;;;;;;6.25;3.03;;;20.00;62.00;;;;;;5045150;28;20599;-49
2023/06/02 07:40:37;;;;;;;7.80;2.70;;;20.00;62.00;;;;;;5047576;28;20203;-51
2023/06/02 07:43:03;;;;;;;6.57;2.78;;;20.10;62.30;;;;;;5041045;28;20204;-50
2023/06/02 07:45:30;;;;;;;5.47;2.85;;;20.00;61.50;;;;;;5042899;28;20603;-48
2023/06/02 07:47:57;;;;;;;9.90;2.80;;;20.00;62.10;;;;;;5039044;28;20199;-49
2023/06/02 07:50:24;;;;;;;6.70;2.55;;;20.00;61.70;;;;;;5039443;28;20727;-49
2023/06/02 07:52:51;;;;;;;15.48;4.15;;;20.00;61.90;;;;;;5040619;28;20207;-51
2023/06/02 07:55:18;;;;;;;11.98;4.15;;;20.00;62.20;;;;;;5057585;28;20627;-49
2023/06/02 07:57:46;;;;;;;9.45;3.70;;;20.00;62.00;;;;;;5047304;28;20199;-49
2023/06/02 08:00:14;;;;;;;17.65;5.15;;;20.00;62.20;;;;;;5038878;28;20192;-48
2023/06/02 08:02:43;;;;;;;12.60;4.13;;;20.00;62.40;;;;;;5046866;28;20211;-49
2023/06/02 08:05:10;;;;;;;12.18;3.38;;;20.10;62.80;;;;;;5052800;28;20238;-52
2023/06/02 08:07:37;;;;;;;12.57;3.60;;;20.00;62.50;;;;;;5052950;28;20199;-50
2023/06/02 08:10:04;;;;;;;9.88;2.83;;;20.00;62.50;;;;;;5043879;28;20241;-47
2023/06/02 08:12:31;;;;;;;7.55;3.15;;;20.00;62.50;;;;;;5041560;28;20575;-47
2023/06/02 08:14:59;;;;;;;6.03;2.92;;;20.00;62.20;;;;;;5035702;28;20207;-49
2023/06/02 08:17:29;;;;;;;4.13;2.58;;;20.00;62.30;;;;;;5046126;28;20643;-49
2023/06/02 08:19:56;;;;;;;7.57;2.65;;;20.00;63.10;;;;;;5047086;28;20200;-50
2023/06/02 08:22:25;;;;;;;12.23;3.25;;;20.10;63.80;;;;;;5052112;28;20658;-52
2023/06/02 08:24:52;;;;;;;7.43;3.95;;;20.10;63.70;;;;;;5057854;28;20309;-48
2023/06/02 08:27:20;;;;;;;8.88;3.05;;;20.10;63.70;;;;;;5034256;28;20195;-50
2023/06/02 08:29:46;;;;;;;9.15;3.08;;;20.00;63.30;;;;;;5049796;28;20655;-49
2023/06/02 08:32:15;;;;;;;5.68;2.47;;;20.10;63.70;;;;;;5047794;28;20199;-50
2023/06/02 08:34:41;;;;;;;11.98;3.20;;;20.10;64.00;;;;;;5045652;28;20195;-50
2023/06/02 08:37:16;;;;;;;9.50;3.22;;;20.10;63.90;;;;;;5050738;28;20218;-50
2023/06/02 08:39:43;;;;;;;5.40;2.17;;;20.10;64.20;;;;;;5053258;28;20205;-49
2023/06/02 08:42:12;;;;;;;6.20;2.85;;;20.10;64.70;;;;;;5052069;28;20486;-48
2023/06/02 08:44:38;;;;;;;6.63;3.15;;;20.10;64.90;;;;;;5052761;28;20203;-50
2023/06/02 08:47:10;;;;;;;4.45;2.67;;;20.10;64.90;;;;;;5050469;28;20187;-47
2023/06/02 08:49:41;;;;;;;6.50;2.40;;;20.10;65.40;;;;;;5052365;28;20245;-49
2023/06/02 08:52:12;;;;;;;4.43;2.80;;;20.20;65.20;;;;;;5049233;28;20610;-50
2023/06/02 08:54:40;;;;;;;6.25;2.70;;;20.20;65.40;;;;;;5052549;28;20654;-51
2023/06/02 08:57:09;;;;;;;5.60;2.70;;;20.20;65.70;;;;;;5047106;28;20283;-48
2023/06/02 08:59:36;;;;;;;8.05;2.88;;;20.10;65.60;;;;;;5048215;28;20230;-49
2023/06/02 09:02:03;;;;;;;6.18;3.30;;;20.20;65.60;;;;;;5051297;28;20250;-49
2023/06/02 09:04:30;;;;;;;5.03;2.80;;;20.10;65.60;;;;;;5047421;28;20203;-49
2023/06/02 09:07:22;;;;;;;7.90;2.97;;;20.10;65.60;;;;;;5041904;28;20196;-51
2023/06/02 09:09:51;;;;;;;11.32;2.95;;;20.10;65.50;;;;;;5034367;28;20664;-50
2023/06/02 09:12:18;;;;;;;6.93;2.90;;;20.10;65.70;;;;;;5042505;28;20234;-51
2023/06/02 09:14:47;;;;;;;6.75;3.00;;;20.20;65.80;;;;;;5048474;28;20222;-49
2023/06/02 09:17:28;;;;;;;7.95;3.72;;;20.10;65.70;;;;;;5044003;28;20619;-48
2023/06/02 09:19:56;;;;;;;6.57;3.00;;;20.10;64.90;;;;;;5043368;28;20196;-50
2023/06/02 09:22:25;;;;;;;5.95;3.38;;;20.10;65.40;;;;;;5048460;28;20215;-50
2023/06/02 09:24:53;;;;;;;10.25;3.53;;;20.10;65.40;;;;;;5046834;28;21003;-50
2023/06/02 09:27:19;;;;;;;4.22;2.85;;;20.10;65.50;;;;;;5052579;28;20945;-48
2023/06/02 09:29:47;;;;;;;6.28;2.75;;;20.20;65.90;;;;;;5055796;28;20199;-47
2023/06/02 09:32:15;;;;;;;3.75;2.65;;;20.20;66.00;;;;;;5054886;28;20202;-47
2023/06/02 09:34:43;;;;;;;6.03;2.75;;;20.20;66.20;;;;;;5055548;28;20200;-49
2023/06/02 09:37:12;;;;;;;7.10;3.35;;;20.10;66.00;;;;;;5056851;28;20203;-49
2023/06/02 09:39:43;;;;;;;3.75;2.60;;;20.20;66.30;;;;;;5051817;28;20294;-51
2023/06/02 09:42:10;;;;;;;5.72;3.47;;;20.20;66.30;;;;;;5051099;28;20305;-49
2023/06/02 09:44:37;;;;;;;5.53;2.58;;;20.10;66.20;;;;;;5054403;28;20196;-51
2023/06/02 09:47:19;;;;;;;5.15;2.83;;;20.20;66.40;;;;;;5050094;28;20204;-52
2023/06/02 09:49:46;;;;;;;5.35;2.70;;;20.20;66.40;;;;;;5045744;28;20608;-49
2023/06/02 09:52:14;;;;;;;7.22;3.03;;;20.20;66.50;;;;;;5050933;28;20223;-47
2023/06/02 09:54:44;;;;;;;7.55;3.05;;;20.20;66.60;;;;;;5046266;28;20643;-51
2023/06/02 09:57:11;;;;;;;9.80;3.60;;;20.20;66.70;;;;;;5051396;28;20199;-54
2023/06/02 09:59:39;;;;;;;7.85;3.28;;;20.20;66.70;;;;;;5045837;28;20253;-54
2023/06/02 10:02:07;;;;;;;13.50;3.58;;;20.20;66.80;;;;;;5049250;28;20227;-49
2023/06/02 10:04:34;;;;;;;5.15;3.15;;;20.20;66.80;;;;;;5047095;28;20606;-50
2023/06/02 10:07:13;;;;;;;9.30;3.20;;;20.20;66.80;;;;;;5048154;28;20214;-50
2023/06/02 10:09:56;;;;;;;4.15;2.47;;;20.20;67.00;;;;;;5044218;28;20753;-49
2023/06/02 10:12:33;;;;;;;5.32;2.72;;;20.20;66.90;;;;;;5046074;28;20203;-50
2023/06/02 10:15:31;;;;;;;3.78;3.00;;;20.20;67.00;;;;;;5053273;28;20199;-52
2023/06/02 10:18:10;;;;;;;4.43;3.13;;;20.20;67.10;;;;;;5044940;28;20560;-53
2023/06/02 10:20:44;;;;;;;5.03;2.40;;;20.30;67.40;;;;;;5055647;28;20192;-50
2023/06/02 10:23:34;;;;;;;5.05;2.28;;;20.20;67.40;;;;;;5046400;28;21364;-49
2023/06/02 10:26:15;;;;;;;5.50;2.47;;;20.20;67.50;;;;;;5041308;28;20675;-49
2023/06/02 10:28:43;;;;;;;4.40;2.55;;;20.20;67.50;;;;;;5042794;28;20204;-47
2023/06/02 10:31:11;;;;;;;5.20;2.85;;;20.20;67.50;;;;;;5047650;28;20261;-50
2023/06/02 10:33:43;;;;;;;4.40;2.72;;;20.20;67.50;;;;;;5044023;28;20667;-48
2023/06/02 10:36:12;;;;;;;5.40;2.40;;;20.20;67.50;;;;;;5051420;28;20278;-50
2023/06/02 10:38:39;;;;;;;4.30;2.97;;;20.20;67.50;;;;;;5044796;28;20305;-50
2023/06/02 10:41:07;;;;;;;3.75;2.10;;;20.20;67.60;;;;;;5039419;28;20207;-50
2023/06/02 10:43:34;;;;;;;6.88;3.58;;;20.30;67.90;;;;;;5047371;28;20215;-51
2023/06/02 10:46:17;;;;;;;4.85;2.80;;;20.20;67.80;;;;;;5047282;28;20570;-48
2023/06/02 10:48:44;;;;;;;10.27;2.97;;;20.30;68.00;;;;;;5043743;28;20282;-49
2023/06/02 10:51:12;;;;;;;4.75;2.95;;;20.20;67.90;;;;;;5050053;28;20264;-47
2023/06/02 10:54:13;;;;;;;3.00;2.15;;;20.30;68.00;;;;;;5052851;28;20207;-50
2023/06/02 10:56:43;;;;;;;4.65;2.63;;;20.30;68.00;;;;;;5044226;28;20207;-55
2023/06/02 10:59:11;;;;;;;6.05;3.10;;;20.30;68.00;;;;;;5046191;28;20601;-53
2023/06/02 11:01:48;;;;;;;9.75;3.17;;;20.20;67.90;;;;;;5047567;28;20203;-54
2023/06/02 11:04:28;;;;;;;3.92;2.58;;;20.30;68.10;;;;;;5040577;28;20225;-51
2023/06/02 11:07:21;;;;;;;4.80;2.80;;;20.20;68.10;;;;;;5047805;28;20261;-53
2023/06/02 11:09:50;;;;;;;6.20;3.58;;;20.20;68.10;;;;;;5045961;28;20207;-53
2023/06/02 11:12:19;;;;;;;9.23;2.63;;;20.20;68.10;;;;;;5042222;28;20559;-50
2023/06/02 11:15:17;;;;;;;4.72;2.60;;;20.30;68.20;;;;;;5043934;28;20199;-54
2023/06/02 11:17:47;;;;;;;4.10;2.92;;;20.30;68.30;;;;;;5049843;28;20207;-53
2023/06/02 11:20:15;;;;;;;3.97;3.25;;;20.30;68.30;;;;;;5053291;28;20667;-51
2023/06/02 11:22:42;;;;;;;7.10;2.60;;;20.30;68.40;;;;;;5043170;28;20340;-52
2023/06/02 11:25:10;;;;;;;4.68;2.45;;;20.30;68.30;;;;;;5046297;28;20285;-48
2023/06/02 11:27:42;;;;;;;4.38;2.50;;;20.30;68.40;;;;;;5054679;28;20214;-49
2023/06/02 11:30:15;;;;;;;5.57;3.08;;;20.30;68.40;;;;;;5047543;28;20195;-49
2023/06/02 11:32:42;;;;;;;3.30;2.38;;;20.30;68.40;;;;;;5052156;28;20207;-52
2023/06/02 11:35:10;;;;;;;3.05;2.75;;;20.30;69.30;;;;;;5058944;28;20238;-52
2023/06/02 11:37:40;;;;;;;5.43;2.72;;;20.30;68.50;;;;;;5046809;28;20192;-52
2023/06/02 11:40:08;;;;;;;4.05;2.70;;;20.30;68.70;;;;;;5047200;28;20203;-54
2023/06/02 11:42:36;;;;;;;4.13;2.15;;;20.30;68.80;;;;;;5038327;28;20219;-51
2023/06/02 11:45:05;;;;;;;9.32;2.75;;;20.30;68.60;;;;;;5043267;28;20203;-61
2023/06/02 11:47:33;;;;;;;3.60;2.75;;;20.30;68.60;;;;;;5045239;28;20682;-59
2023/06/02 11:50:00;;;;;;;7.80;3.25;;;20.30;68.70;;;;;;5049976;28;20199;-60
2023/06/02 11:52:26;;;;;;;5.90;3.50;;;20.30;68.80;;;;;;5042494;28;20210;-60
2023/06/02 11:54:54;;;;;;;2.65;2.40;;;20.30;68.90;;;;;;5038629;28;20238;-61
2023/06/02 11:57:32;;;;;;;5.00;3.22;;;20.30;68.90;;;;;;5045597;28;20592;-60
2023/06/02 12:00:09;;;;;;;5.10;3.38;;;20.30;69.00;;;;;;5041849;28;20667;-57
2023/06/02 12:02:38;;;;;;;5.30;2.85;;;20.30;69.00;;;;;;5045899;28;20255;-60
2023/06/02 12:05:09;;;;;;;5.20;2.70;;;20.30;69.00;;;;;;5041330;28;20685;-61
2023/06/02 12:07:36;;;;;;;7.30;3.10;;;20.30;69.10;;;;;;5050332;28;20226;-60
2023/06/02 12:10:03;;;;;;;4.60;3.08;;;20.30;69.10;;;;;;5042701;28;20195;-61
2023/06/02 12:12:31;;;;;;;8.60;3.72;;;20.30;69.20;;;;;;5043647;28;20649;-58
2023/06/02 12:14:57;;;;;;;8.43;3.40;;;20.30;69.30;;;;;;5041027;28;20820;-60
2023/06/02 12:17:26;;;;;;;10.55;4.00;;;20.30;69.40;;;;;;5045450;28;20659;-56
2023/06/02 12:19:59;;;;;;;5.28;2.92;;;20.30;69.50;;;;;;5042945;28;20226;-60
2023/06/02 12:22:25;;;;;;;6.03;4.38;;;20.30;69.50;;;;;;5049136;28;20233;-60
2023/06/02 12:24:52;;;;;;;9.43;4.18;;;20.40;69.70;;;;;;5047767;28;20219;-61
2023/06/02 12:27:23;;;;;;;4.35;2.97;;;20.30;69.70;;;;;;5044724;28;20242;-60
2023/06/02 12:29:50;;;;;;;4.53;3.00;;;20.40;69.80;;;;;;5043218;28;20282;-59
2023/06/02 12:32:27;;;;;;;7.25;3.47;;;20.30;69.80;;;;;;5040926;28;20203;-60
2023/06/02 12:34:53;;;;;;;6.00;3.90;;;20.40;70.00;;;;;;5045491;28;20325;-60
2023/06/02 12:37:20;;;;;;;6.22;3.78;;;20.30;70.00;;;;;;5045983;28;20314;-60
2023/06/02 12:39:46;;;;;;;5.30;3.22;;;20.40;70.10;;;;;;5045176;28;20204;-57
2023/06/02 12:42:18;;;;;;;4.97;3.47;;;20.40;70.20;;;;;;5045860;28;20196;-59
2023/06/02 12:44:45;;;;;;;4.55;3.03;;;20.40;70.20;;;;;;5043835;28;20246;-60
2023/06/02 12:47:13;;;;;;;6.78;3.65;;;20.40;70.20;;;;;;5044151;28;20199;-56
2023/06/02 12:49:41;;;;;;;6.82;3.40;;;20.40;70.30;;;;;;5038608;28;20203;-61
2023/06/02 12:52:07;;;;;;;11.02;3.78;;;20.40;70.30;;;;;;5045645;28;20195;-61